Time;durP1;ratioP1;P1;durP2;ratioP2;P2;SDS_P1;SDS_P2;PMS_P1;PMS_P2;Temp;Humidity;BMP_temperature;BMP_pressure;BME280_temperature;BME280_humidity;BME280_pressure;Samples;Min_cycle;Max_cycle;Signal;HPM_P1;HPM_P2
2024/01/26 00:00:23;;;;;;;17.05;7.53;;;14.80;99.90;;;;;;7381998;19;20056;-76
2024/01/26 00:02:54;;;;;;;12.15;7.15;;;14.80;99.90;;;;;;7382069;19;20144;-76
2024/01/26 00:05:23;;;;;;;17.23;7.68;;;14.80;99.90;;;;;;7380848;19;20062;-76
2024/01/26 00:07:52;;;;;;;13.80;7.22;;;14.90;99.90;;;;;;7382163;19;20011;-77
2024/01/26 00:10:20;;;;;;;21.42;8.13;;;14.90;99.90;;;;;;7403469;19;20294;-75
2024/01/26 00:12:49;;;;;;;16.85;8.15;;;14.90;99.90;;;;;;7381467;19;20006;-76
2024/01/26 00:15:18;;;;;;;20.95;7.85;;;14.80;99.90;;;;;;7381845;19;20003;-76
2024/01/26 00:17:52;;;;;;;16.15;7.60;;;14.90;99.90;;;;;;7381422;19;20021;-76
2024/01/26 00:20:21;;;;;;;21.63;8.27;;;14.90;99.90;;;;;;7382017;19;20019;-77
2024/01/26 00:22:50;;;;;;;15.10;8.38;;;14.90;99.90;;;;;;7382003;19;20003;-77
2024/01/26 00:25:18;;;;;;;20.55;9.00;;;14.70;99.90;;;;;;7400114;19;20421;-76
2024/01/26 00:27:47;;;;;;;18.13;9.15;;;14.80;99.90;;;;;;7378401;19;20003;-77
2024/01/26 00:30:17;;;;;;;25.17;10.27;;;14.70;99.90;;;;;;7379181;19;20288;-76
2024/01/26 00:32:46;;;;;;;15.70;9.10;;;14.80;99.90;;;;;;7378740;19;20027;-75
2024/01/26 00:35:18;;;;;;;23.70;9.60;;;14.90;99.90;;;;;;7379337;19;20040;-76
2024/01/26 00:37:46;;;;;;;29.38;9.75;;;15.00;99.90;;;;;;7378872;19;20006;-76
2024/01/26 00:40:15;;;;;;;24.85;9.40;;;14.90;99.90;;;;;;7399891;19;20362;-76
2024/01/26 00:42:44;;;;;;;20.67;10.32;;;15.00;99.90;;;;;;7377710;19;20309;-76
2024/01/26 00:45:13;;;;;;;22.30;10.50;;;15.00;99.90;;;;;;7377695;19;20006;-76
2024/01/26 00:47:41;;;;;;;20.05;9.95;;;15.00;99.90;;;;;;7378585;19;20002;-76
2024/01/26 00:50:10;;;;;;;19.00;9.73;;;15.10;99.90;;;;;;7378412;19;20017;-76
2024/01/26 00:52:42;;;;;;;24.13;10.18;;;15.10;99.90;;;;;;7397416;19;20586;-76
2024/01/26 00:55:11;;;;;;;;;;;15.00;99.90;;;;;;7378427;19;20402;-76
2024/01/26 00:57:39;;;;;;;22.45;9.40;;;15.10;99.90;;;;;;7377399;19;19903;-76
2024/01/26 01:00:10;;;;;;;16.80;10.07;;;15.10;99.90;;;;;;7378185;19;20011;-76
2024/01/26 01:02:39;;;;;;;22.70;10.05;;;15.20;99.90;;;;;;7378189;19;20002;-77
2024/01/26 01:05:09;;;;;;;21.63;10.27;;;15.10;99.90;;;;;;7377769;19;20031;-75
2024/01/26 01:07:41;;;;;;;19.63;10.55;;;15.20;99.90;;;;;;7399012;19;20011;-76
2024/01/26 01:10:11;;;;;;;17.30;9.80;;;15.00;99.90;;;;;;7380477;19;20014;-75
2024/01/26 01:12:41;;;;;;;20.75;10.13;;;15.00;99.90;;;;;;7377187;19;20003;-76
2024/01/26 01:15:11;;;;;;;23.63;10.80;;;15.00;99.90;;;;;;7377296;19;20412;-76
2024/01/26 01:17:40;;;;;;;22.13;10.60;;;15.10;99.90;;;;;;7377650;19;20013;-77
2024/01/26 01:20:11;;;;;;;17.60;10.65;;;15.10;99.90;;;;;;7377624;19;20016;-76
2024/01/26 01:22:43;;;;;;;19.50;8.98;;;15.20;99.90;;;;;;7398603;19;20021;-77
2024/01/26 01:25:13;;;;;;;22.88;10.75;;;15.10;99.90;;;;;;7376676;19;20023;-75
2024/01/26 01:27:43;;;;;;;21.98;9.98;;;15.10;99.90;;;;;;7376368;19;20067;-76
2024/01/26 01:30:12;;;;;;;20.88;10.43;;;15.10;99.90;;;;;;7377316;19;20014;-76
2024/01/26 01:32:41;;;;;;;22.23;10.43;;;15.10;99.90;;;;;;7376919;19;20261;-76
2024/01/26 01:35:10;;;;;;;28.83;10.30;;;15.10;99.90;;;;;;7376614;19;20015;-76
2024/01/26 01:37:41;;;;;;;24.95;10.23;;;15.00;99.90;;;;;;7397892;19;20011;-76
2024/01/26 01:40:11;;;;;;;20.42;9.52;;;14.90;99.90;;;;;;7375831;19;20446;-76
2024/01/26 01:42:40;;;;;;;22.20;10.70;;;14.90;99.90;;;;;;7376127;19;20016;-75
2024/01/26 01:45:14;;;;;;;20.27;9.57;;;15.00;99.90;;;;;;7375169;19;20016;-76
2024/01/26 01:47:46;;;;;;;20.73;9.23;;;15.00;99.90;;;;;;7377061;19;19999;-76
2024/01/26 01:50:15;;;;;;;19.85;9.57;;;15.10;99.90;;;;;;7376443;19;20015;-76
2024/01/26 01:52:50;;;;;;;23.38;8.82;;;15.10;99.90;;;;;;7398318;19;20011;-76
2024/01/26 01:55:19;;;;;;;19.23;9.13;;;15.10;99.90;;;;;;7375762;19;20007;-75
2024/01/26 01:57:49;;;;;;;23.25;8.98;;;15.10;99.90;;;;;;7376139;19;20071;-74
2024/01/26 02:00:18;;;;;;;25.02;8.82;;;15.10;99.90;;;;;;7376375;19;20010;-75
2024/01/26 02:02:47;;;;;;;23.67;9.55;;;15.20;99.90;;;;;;7384358;19;20002;-77
2024/01/26 02:05:18;;;;;;;21.65;8.98;;;15.10;99.90;;;;;;7390424;19;20050;-76
2024/01/26 02:07:53;;;;;;;22.67;9.65;;;15.10;99.90;;;;;;7411152;19;20010;-76
2024/01/26 02:10:22;;;;;;;14.77;8.60;;;15.10;99.90;;;;;;7388521;19;20022;-76
2024/01/26 02:12:51;;;;;;;17.85;8.48;;;15.10;99.90;;;;;;7388333;19;20006;-76
2024/01/26 02:15:20;;;;;;;25.88;8.45;;;15.10;99.90;;;;;;7386750;19;20025;-76
2024/01/26 02:17:48;;;;;;;18.95;8.38;;;15.20;99.90;;;;;;7383676;19;20036;-76
2024/01/26 02:20:17;;;;;;;25.10;8.98;;;15.10;99.90;;;;;;7384208;19;20078;-75
2024/01/26 02:22:46;;;;;;;28.27;9.25;;;15.10;99.90;;;;;;7408924;19;20066;-75
2024/01/26 02:25:17;;;;;;;17.90;8.55;;;15.10;99.90;;;;;;7381836;19;20028;-77
2024/01/26 02:27:46;;;;;;;;;;;15.10;99.90;;;;;;7382310;19;20002;-76
2024/01/26 02:30:15;;;;;;;12.93;7.82;;;15.10;99.90;;;;;;7382637;19;20231;-76
2024/01/26 02:32:44;;;;;;;17.52;8.05;;;15.00;99.90;;;;;;7382055;19;20146;-76
2024/01/26 02:35:13;;;;;;;15.85;8.75;;;15.00;99.90;;;;;;7382662;19;20014;-76
2024/01/26 02:37:41;;;;;;;14.10;7.93;;;15.10;99.90;;;;;;7403365;19;20011;-76
2024/01/26 02:40:12;;;;;;;15.95;7.50;;;15.10;99.90;;;;;;7381321;19;20066;-76
2024/01/26 02:42:43;;;;;;;20.67;8.37;;;15.10;99.90;;;;;;7381811;19;19999;-76
2024/01/26 02:45:13;;;;;;;18.85;8.85;;;15.10;99.90;;;;;;7381955;19;20062;-76
2024/01/26 02:47:42;;;;;;;26.30;8.45;;;15.10;99.90;;;;;;7382310;19;20058;-76
2024/01/26 02:50:12;;;;;;;16.83;8.68;;;15.20;99.90;;;;;;7381642;19;20287;-76
2024/01/26 02:52:40;;;;;;;19.40;9.13;;;15.10;99.90;;;;;;7403914;19;20256;-76
2024/01/26 02:55:09;;;;;;;20.63;9.13;;;15.10;99.90;;;;;;7381112;19;20117;-75
2024/01/26 02:57:38;;;;;;;20.90;9.48;;;15.10;99.90;;;;;;7382125;19;20007;-75
2024/01/26 03:00:14;;;;;;;23.38;9.90;;;15.00;99.90;;;;;;7382106;19;19999;-76
2024/01/26 03:02:43;;;;;;;25.35;9.60;;;14.90;99.90;;;;;;7381553;19;20066;-75
2024/01/26 03:05:11;;;;;;;21.67;9.55;;;14.90;99.90;;;;;;7382209;19;20002;-76
2024/01/26 03:07:40;;;;;;;20.67;9.40;;;14.90;99.90;;;;;;7402939;19;20010;-76
2024/01/26 03:10:09;;;;;;;18.00;9.77;;;14.80;99.90;;;;;;7382371;19;20284;-76
2024/01/26 03:12:38;;;;;;;21.95;10.55;;;14.90;99.90;;;;;;7382588;19;20090;-76
2024/01/26 03:15:10;;;;;;;21.88;10.00;;;14.80;99.90;;;;;;7379356;19;20027;-75
2024/01/26 03:17:39;;;;;;;29.45;10.60;;;14.80;99.90;;;;;;7381965;19;20003;-76
2024/01/26 03:20:10;;;;;;;24.88;10.23;;;14.80;99.90;;;;;;7380958;19;20062;-76
2024/01/26 03:22:39;;;;;;;25.73;10.27;;;14.80;99.90;;;;;;7402886;19;20006;-76
2024/01/26 03:25:09;;;;;;;25.20;10.20;;;14.70;99.90;;;;;;7380121;19;20011;-76
2024/01/26 03:27:37;;;;;;;20.63;9.75;;;14.80;99.90;;;;;;7379836;19;20018;-76
2024/01/26 03:30:08;;;;;;;24.63;9.75;;;14.60;99.90;;;;;;7380997;19;20022;-76
2024/01/26 03:32:39;;;;;;;22.08;10.10;;;14.70;99.90;;;;;;7380753;19;20013;-76
2024/01/26 03:35:09;;;;;;;20.40;9.65;;;14.70;99.90;;;;;;7380960;19;20007;-76
2024/01/26 03:37:40;;;;;;;16.40;8.38;;;14.40;99.90;;;;;;7401372;19;20011;-76
2024/01/26 03:40:10;;;;;;;22.10;9.73;;;14.50;99.90;;;;;;7379971;19;20006;-76
2024/01/26 03:42:40;;;;;;;23.27;8.80;;;14.70;99.90;;;;;;7379932;19;20006;-76
2024/01/26 03:45:10;;;;;;;19.73;9.27;;;14.60;99.90;;;;;;7380178;19;20006;-76
2024/01/26 03:47:41;;;;;;;22.02;9.60;;;14.70;99.90;;;;;;7378416;19;20441;-76
2024/01/26 03:50:11;;;;;;;17.50;9.63;;;14.60;99.90;;;;;;7380264;19;20074;-76
2024/01/26 03:52:39;;;;;;;24.85;9.82;;;14.80;99.90;;;;;;7402045;19;20020;-76
2024/01/26 03:55:09;;;;;;;23.38;9.02;;;14.80;99.90;;;;;;7379922;19;20369;-76
2024/01/26 03:57:38;;;;;;;22.40;9.38;;;14.70;99.90;;;;;;7378871;19;20082;-76
2024/01/26 04:00:09;;;;;;;22.00;9.30;;;14.90;99.90;;;;;;7379863;19;20423;-76
2024/01/26 04:02:40;;;;;;;19.88;8.68;;;14.90;99.90;;;;;;7379002;19;20515;-76
2024/01/26 04:05:09;;;;;;;20.70;9.32;;;14.80;99.90;;;;;;7379878;19;20018;-76
2024/01/26 04:07:38;;;;;;;16.23;9.63;;;14.80;99.90;;;;;;7399217;19;20042;-76
2024/01/26 04:10:09;;;;;;;23.85;9.13;;;14.80;99.90;;;;;;7379345;19;20011;-76
2024/01/26 04:12:37;;;;;;;23.33;8.38;;;14.80;99.90;;;;;;7379231;19;19998;-76
2024/01/26 04:15:07;;;;;;;20.35;8.80;;;14.80;99.90;;;;;;7380122;19;20293;-76
2024/01/26 04:17:35;;;;;;;21.42;8.60;;;14.80;99.90;;;;;;7379536;19;20006;-76
2024/01/26 04:20:08;;;;;;;23.45;8.95;;;14.80;99.90;;;;;;7379191;19;20015;-76
2024/01/26 04:22:37;;;;;;;21.60;8.25;;;14.40;99.90;;;;;;7400449;19;20027;-76
2024/01/26 04:25:07;;;;;;;15.65;7.85;;;14.40;99.90;;;;;;7378169;19;20013;-76
2024/01/26 04:27:38;;;;;;;15.65;8.50;;;14.30;99.90;;;;;;7384562;19;20019;-76
2024/01/26 04:30:08;;;;;;;17.58;7.60;;;14.30;99.90;;;;;;7385663;19;20102;-76
2024/01/26 04:32:38;;;;;;;16.50;7.50;;;14.50;99.90;;;;;;7378360;19;20058;-76
2024/01/26 04:35:10;;;;;;;28.83;8.55;;;14.70;99.90;;;;;;7382820;19;20010;-76
2024/01/26 04:37:39;;;;;;;24.15;8.15;;;14.80;99.90;;;;;;7406169;19;20011;-76
2024/01/26 04:40:10;;;;;;;29.08;7.80;;;14.60;99.90;;;;;;7384933;19;20047;-76
2024/01/26 04:42:39;;;;;;;23.05;7.68;;;14.70;99.90;;;;;;7386015;19;20412;-76
2024/01/26 04:45:08;;;;;;;22.35;8.05;;;14.30;99.90;;;;;;7385497;19;20014;-76
2024/01/26 04:47:37;;;;;;;21.98;8.38;;;14.50;99.90;;;;;;7377625;19;20010;-76
2024/01/26 04:50:09;;;;;;;28.55;8.20;;;14.60;99.90;;;;;;7378332;19;20011;-76
2024/01/26 04:52:38;;;;;;;16.52;7.97;;;14.70;99.90;;;;;;7399006;19;20365;-75
2024/01/26 04:55:07;;;;;;;18.48;8.27;;;14.80;99.90;;;;;;7377748;19;20023;-76
2024/01/26 04:57:36;;;;;;;24.00;8.90;;;14.90;99.90;;;;;;7378049;19;20375;-76
2024/01/26 05:00:04;;;;;;;23.45;8.77;;;15.00;99.90;;;;;;7378556;19;20099;-75
2024/01/26 05:02:33;;;;;;;18.88;7.97;;;15.00;99.90;;;;;;7378327;19;20002;-75
2024/01/26 05:05:02;;;;;;;21.60;7.95;;;14.90;99.90;;;;;;7400395;19;20011;-76
2024/01/26 05:07:33;;;;;;;26.38;7.38;;;14.90;99.90;;;;;;7375830;19;20002;-76
2024/01/26 05:10:04;;;;;;;23.65;7.57;;;15.00;99.90;;;;;;7377807;19;20062;-76
2024/01/26 05:12:32;;;;;;;21.20;8.23;;;15.10;99.90;;;;;;7377911;19;20018;-77
2024/01/26 05:15:02;;;;;;;17.30;8.13;;;15.10;99.90;;;;;;7377283;19;20358;-76
2024/01/26 05:17:31;;;;;;;20.00;8.05;;;15.10;99.90;;;;;;7377652;19;20006;-76
2024/01/26 05:20:00;;;;;;;22.85;8.43;;;14.90;99.90;;;;;;7399090;19;19999;-76
2024/01/26 05:22:28;;;;;;;20.23;8.23;;;15.00;99.90;;;;;;7376569;19;20373;-76
2024/01/26 05:25:00;;;;;;;21.25;7.82;;;15.00;99.90;;;;;;7377312;19;19999;-76
2024/01/26 05:27:28;;;;;;;20.08;7.95;;;15.00;99.90;;;;;;7376632;19;20425;-76
2024/01/26 05:29:57;;;;;;;21.60;8.20;;;15.00;99.90;;;;;;7377170;19;20054;-76
2024/01/26 05:32:26;;;;;;;27.02;7.28;;;15.00;99.90;;;;;;7377229;19;20023;-76
2024/01/26 05:34:55;;;;;;;18.77;7.95;;;15.10;99.90;;;;;;7396671;19;20002;-75
2024/01/26 05:37:26;;;;;;;22.73;7.57;;;14.90;99.90;;;;;;7377877;19;20010;-76
2024/01/26 05:39:54;;;;;;;20.20;7.60;;;14.90;99.90;;;;;;7384283;19;20003;-75
2024/01/26 05:42:26;;;;;;;21.48;7.28;;;15.00;99.90;;;;;;7384529;19;20010;-75
2024/01/26 05:44:54;;;;;;;13.18;6.95;;;15.00;99.90;;;;;;7384819;19;20006;-76
2024/01/26 05:47:23;;;;;;;20.25;7.80;;;15.00;99.90;;;;;;7381393;19;20062;-76
2024/01/26 05:49:52;;;;;;;19.00;7.47;;;14.90;99.90;;;;;;7405774;19;20433;-76
2024/01/26 05:52:21;;;;;;;21.02;7.95;;;14.90;99.90;;;;;;7383467;19;20041;-75
2024/01/26 05:54:49;;;;;;;20.48;7.28;;;14.80;99.90;;;;;;7383555;19;20006;-75
2024/01/26 05:57:18;;;;;;;18.45;7.03;;;14.80;99.90;;;;;;7385304;19;20357;-75
2024/01/26 05:59:49;;;;;;;16.23;7.13;;;14.70;99.90;;;;;;7384480;19;20232;-76
2024/01/26 06:02:18;;;;;;;20.02;6.28;;;14.60;99.90;;;;;;7383787;19;20011;-76
2024/01/26 06:04:47;;;;;;;24.42;7.25;;;14.80;99.90;;;;;;7404775;19;20006;-75
2024/01/26 06:07:16;;;;;;;19.77;6.57;;;14.90;99.90;;;;;;7384478;19;20006;-76
2024/01/26 06:09:44;;;;;;;15.50;7.07;;;14.80;99.90;;;;;;7383523;19;20010;-75
2024/01/26 06:12:13;;;;;;;11.88;6.13;;;14.80;99.90;;;;;;7383538;19;20015;-75
2024/01/26 06:14:42;;;;;;;21.67;6.78;;;14.90;99.90;;;;;;7383346;19;20378;-75
2024/01/26 06:17:13;;;;;;;22.40;7.85;;;15.00;99.90;;;;;;7383336;19;20062;-75
2024/01/26 06:19:41;;;;;;;21.38;7.75;;;15.00;99.90;;;;;;7404529;19;20099;-76
2024/01/26 06:22:10;;;;;;;18.55;6.68;;;15.00;99.90;;;;;;7382123;19;20076;-75
2024/01/26 06:24:39;;;;;;;21.05;7.68;;;14.90;99.90;;;;;;7382654;19;20414;-76
2024/01/26 06:27:08;;;;;;;23.05;7.85;;;14.70;99.90;;;;;;7382467;19;20088;-77
2024/01/26 06:29:37;;;;;;;21.70;7.35;;;14.60;99.90;;;;;;7382746;19;20010;-75
2024/01/26 06:32:06;;;;;;;24.00;6.85;;;14.60;99.90;;;;;;7404546;19;20066;-75
2024/01/26 06:34:42;;;;;;;20.85;7.28;;;14.70;99.90;;;;;;7381838;19;20002;-75
2024/01/26 06:37:10;;;;;;;21.40;7.60;;;14.70;99.90;;;;;;7383201;19;19999;-75
2024/01/26 06:39:39;;;;;;;13.32;6.35;;;14.60;99.90;;;;;;7382685;19;20010;-75
2024/01/26 06:42:08;;;;;;;20.13;6.13;;;14.80;99.90;;;;;;7384210;19;20015;-75
2024/01/26 06:44:36;;;;;;;24.20;6.55;;;14.90;99.90;;;;;;7382666;19;20002;-75
2024/01/26 06:47:06;;;;;;;21.52;6.82;;;14.70;99.90;;;;;;7403549;19;20605;-75
2024/01/26 06:49:37;;;;;;;22.48;6.85;;;14.50;99.90;;;;;;7379104;19;20074;-75
2024/01/26 06:52:06;;;;;;;19.63;5.95;;;14.70;99.90;;;;;;7382518;19;20010;-75
2024/01/26 06:54:35;;;;;;;22.65;7.13;;;14.80;99.90;;;;;;7382382;19;20303;-75
2024/01/26 06:57:04;;;;;;;22.40;6.50;;;14.80;99.90;;;;;;7381951;19;20010;-75
2024/01/26 06:59:37;;;;;;;29.40;6.63;;;14.90;99.90;;;;;;7381835;19;20015;-76
2024/01/26 07:02:06;;;;;;;21.02;6.25;;;15.00;99.90;;;;;;7406863;19;20049;-76
2024/01/26 07:04:38;;;;;;;23.45;6.68;;;14.90;99.90;;;;;;7390089;19;20010;-76
2024/01/26 07:07:06;;;;;;;29.05;7.00;;;14.90;99.90;;;;;;7389144;19;20063;-76
2024/01/26 07:09:35;;;;;;;20.02;6.38;;;14.90;99.90;;;;;;7391499;19;20003;-76
2024/01/26 07:12:04;;;;;;;17.15;5.85;;;14.90;99.90;;;;;;7391118;19;20019;-76
2024/01/26 07:14:33;;;;;;;27.10;6.03;;;14.70;99.90;;;;;;7389007;19;20042;-75
2024/01/26 07:17:02;;;;;;;19.20;5.63;;;14.90;99.90;;;;;;7403876;19;20011;-76
2024/01/26 07:19:31;;;;;;;28.85;7.55;;;14.90;99.90;;;;;;7380629;19;20027;-76
2024/01/26 07:22:02;;;;;;;18.75;6.57;;;14.90;99.90;;;;;;7380035;19;20023;-76
2024/01/26 07:24:31;;;;;;;21.30;5.93;;;14.80;99.90;;;;;;7380715;19;20027;-76
2024/01/26 07:26:59;;;;;;;23.42;6.95;;;14.90;99.90;;;;;;7379973;19;20527;-75
2024/01/26 07:29:29;;;;;;;18.33;6.75;;;14.60;99.90;;;;;;7381420;19;20014;-76
2024/01/26 07:31:57;;;;;;;30.38;7.38;;;14.40;99.90;;;;;;7402993;19;20023;-76
2024/01/26 07:34:29;;;;;;;19.85;6.70;;;14.50;99.90;;;;;;7380820;19;20039;-76
2024/01/26 07:36:57;;;;;;;19.83;6.80;;;14.70;99.90;;;;;;7380884;19;19999;-77
2024/01/26 07:39:29;;;;;;;25.88;7.35;;;14.70;99.90;;;;;;7379339;19;20386;-77
2024/01/26 07:41:57;;;;;;;;;;;14.80;99.90;;;;;;7380080;19;20011;-76
2024/01/26 07:44:26;;;;;;;22.83;7.75;;;14.90;99.90;;;;;;7377992;19;19910;-76
2024/01/26 07:46:54;;;;;;;21.48;7.28;;;14.90;99.90;;;;;;7406144;19;20047;-76
2024/01/26 07:49:25;;;;;;;19.45;6.95;;;14.90;99.90;;;;;;7380661;19;20023;-76
2024/01/26 07:51:54;;;;;;;27.08;8.32;;;14.90;99.90;;;;;;7379564;19;20010;-76
2024/01/26 07:54:23;;;;;;;16.23;8.00;;;14.80;99.90;;;;;;7379686;19;20006;-76
2024/01/26 07:56:54;;;;;;;25.50;8.20;;;14.90;99.90;;;;;;7379095;19;20369;-77
2024/01/26 07:59:23;;;;;;;22.40;7.93;;;14.70;99.90;;;;;;7381157;19;20010;-77
2024/01/26 08:01:52;;;;;;;17.15;8.50;;;14.90;99.90;;;;;;7399822;19;20335;-76
2024/01/26 08:04:20;;;;;;;24.92;9.38;;;14.70;99.90;;;;;;7378083;19;20006;-75
2024/01/26 08:06:49;;;;;;;23.08;9.30;;;14.70;99.90;;;;;;7378409;19;20293;-74
2024/01/26 08:09:18;;;;;;;16.38;7.15;;;14.80;99.90;;;;;;7378124;19;19999;-75
2024/01/26 08:11:47;;;;;;;18.23;7.18;;;14.90;99.90;;;;;;7378685;19;20006;-74
2024/01/26 08:14:19;;;;;;;17.55;6.28;;;14.90;99.90;;;;;;7378755;19;20006;-75
2024/01/26 08:16:47;;;;;;;13.40;5.57;;;14.90;99.90;;;;;;7400352;19;20296;-72
2024/01/26 08:19:16;;;;;;;12.80;4.32;;;14.90;99.90;;;;;;7377980;19;20007;-73
2024/01/26 08:21:45;;;;;;;12.10;4.85;;;14.80;99.90;;;;;;7378991;19;20323;-74
2024/01/26 08:24:13;;;;;;;11.88;4.47;;;14.90;99.90;;;;;;7379232;19;20058;-74
2024/01/26 08:26:42;;;;;;;28.60;9.90;;;14.90;99.90;;;;;;7379204;19;20015;-73
2024/01/26 08:29:11;;;;;;;15.88;8.25;;;14.90;99.90;;;;;;7397919;19;20007;-72
2024/01/26 08:31:42;;;;;;;19.15;7.82;;;14.90;99.90;;;;;;7377601;19;20054;-73
2024/01/26 08:34:10;;;;;;;14.95;6.55;;;14.70;99.90;;;;;;7377220;19;20064;-73
2024/01/26 08:36:39;;;;;;;8.77;3.88;;;14.80;99.90;;;;;;7377522;19;20429;-72
2024/01/26 08:39:11;;;;;;;9.32;4.07;;;14.80;99.90;;;;;;7377120;19;20002;-72
2024/01/26 08:41:43;;;;;;;8.15;4.00;;;14.80;99.90;;;;;;7378327;19;20006;-73
2024/01/26 08:44:12;;;;;;;9.45;3.80;;;14.90;99.90;;;;;;7399470;19;20011;-73
2024/01/26 08:46:46;;;;;;;5.95;3.13;;;14.80;99.90;;;;;;7377739;19;20002;-73
2024/01/26 08:49:15;;;;;;;6.55;3.13;;;14.90;99.90;;;;;;7377036;19;20057;-73
2024/01/26 08:51:44;;;;;;;5.93;3.10;;;14.90;99.90;;;;;;7377438;19;20080;-73
2024/01/26 08:54:12;;;;;;;20.42;10.27;;;14.90;99.90;;;;;;7377452;19;20006;-73
2024/01/26 08:56:44;;;;;;;8.27;4.95;;;14.90;99.90;;;;;;7380798;19;20007;-73
2024/01/26 08:59:13;;;;;;;9.88;2.88;;;15.00;99.90;;;;;;7399555;19;20035;-73
2024/01/26 09:01:44;;;;;;;6.57;2.53;;;14.90;99.90;;;;;;7376639;19;20011;-72
2024/01/26 09:04:12;;;;;;;3.75;2.45;;;14.90;99.90;;;;;;7376280;19;20385;-72
2024/01/26 09:06:41;;;;;;;2.72;2.22;;;15.00;99.90;;;;;;7377374;19;20067;-72
2024/01/26 09:09:10;;;;;;;4.65;2.13;;;15.00;99.90;;;;;;7376607;19;20007;-72
2024/01/26 09:11:39;;;;;;;8.57;2.67;;;15.00;99.90;;;;;;7377255;19;20006;-72
2024/01/26 09:14:08;;;;;;;6.10;3.20;;;14.90;99.90;;;;;;7405250;19;20006;-72
2024/01/26 09:16:38;;;;;;;3.60;2.42;;;15.00;99.90;;;;;;7384104;19;20007;-71
2024/01/26 09:19:10;;;;;;;6.07;2.83;;;15.10;99.90;;;;;;7384068;19;20027;-72
2024/01/26 09:21:39;;;;;;;4.50;2.45;;;15.10;99.90;;;;;;7384446;19;20003;-71
2024/01/26 09:24:08;;;;;;;6.50;2.47;;;15.10;99.90;;;;;;7384643;19;20023;-71
2024/01/26 09:26:39;;;;;;;4.63;2.42;;;15.10;99.90;;;;;;7384964;19;20028;-71
2024/01/26 09:29:09;;;;;;;3.65;2.47;;;15.00;99.90;;;;;;7403525;19;20032;-72
2024/01/26 09:31:38;;;;;;;5.57;2.63;;;15.10;99.90;;;;;;7383495;19;20059;-73
2024/01/26 09:34:09;;;;;;;4.28;2.60;;;15.10;99.90;;;;;;7386129;19;20070;-73
2024/01/26 09:36:38;;;;;;;11.35;3.08;;;15.10;99.90;;;;;;7388894;19;20080;-73
2024/01/26 09:39:07;;;;;;;13.57;3.13;;;15.10;99.90;;;;;;7385735;19;20067;-73
2024/01/26 09:41:35;;;;;;;6.63;2.80;;;15.10;99.90;;;;;;7389219;19;20010;-73
2024/01/26 09:44:05;;;;;;;8.05;2.55;;;15.10;99.90;;;;;;7408136;19;20014;-74
2024/01/26 09:46:34;;;;;;;7.65;2.83;;;15.00;99.90;;;;;;7386068;19;19999;-72
2024/01/26 09:49:03;;;;;;;7.90;2.13;;;15.00;99.90;;;;;;7382292;19;20023;-72
2024/01/26 09:51:34;;;;;;;4.82;2.65;;;15.00;99.90;;;;;;7384700;19;20027;-73
2024/01/26 09:54:04;;;;;;;4.38;2.42;;;15.00;99.90;;;;;;7383481;19;20028;-73
2024/01/26 09:56:34;;;;;;;8.60;2.60;;;14.90;99.90;;;;;;7383333;19;20036;-72
2024/01/26 09:59:03;;;;;;;6.78;2.80;;;14.90;99.90;;;;;;7404707;19;20342;-73
2024/01/26 10:01:34;;;;;;;4.20;2.33;;;14.90;99.90;;;;;;7382399;19;20294;-74
2024/01/26 10:04:03;;;;;;;3.47;1.90;;;14.80;99.90;;;;;;7383080;19;20010;-75
2024/01/26 10:06:37;;;;;;;5.15;1.42;;;14.50;99.90;;;;;;7382775;19;19999;-74
2024/01/26 10:09:08;;;;;;;2.55;1.10;;;14.10;99.90;;;;;;7381926;19;20011;-74
2024/01/26 10:11:37;;;;;;;6.22;1.15;;;13.80;99.90;;;;;;7382620;19;20362;-72
2024/01/26 10:14:06;;;;;;;9.75;1.48;;;13.60;99.90;;;;;;7404294;19;20155;-74
2024/01/26 10:16:35;;;;;;;4.20;1.45;;;13.50;99.90;;;;;;7381665;19;20007;-73
2024/01/26 10:19:03;;;;;;;4.72;1.13;;;13.70;99.90;;;;;;7381887;19;20243;-72
2024/01/26 10:21:34;;;;;;;7.82;1.00;;;13.70;99.90;;;;;;7381517;19;20028;-72
2024/01/26 10:24:03;;;;;;;4.85;1.45;;;13.70;99.90;;;;;;7382005;19;20294;-72
2024/01/26 10:26:32;;;;;;;4.13;0.88;;;13.70;99.90;;;;;;7382320;19;20027;-71
2024/01/26 10:29:00;;;;;;;8.07;1.80;;;13.50;99.90;;;;;;7401889;19;20362;-73
2024/01/26 10:31:29;;;;;;;8.98;1.15;;;13.70;99.90;;;;;;7381740;19;20027;-73
2024/01/26 10:33:59;;;;;;;3.95;1.00;;;13.50;99.90;;;;;;7382063;19;20081;-74
2024/01/26 10:36:29;;;;;;;3.08;1.08;;;13.40;99.90;;;;;;7381809;19;20421;-73
2024/01/26 10:39:02;;;;;;;9.48;1.17;;;13.70;99.90;;;;;;7381534;19;20054;-72
2024/01/26 10:41:34;;;;;;;94.50;40.42;;;13.90;99.90;;;;;;7381825;19;20832;-73
2024/01/26 10:44:03;;;;;;;16.52;5.88;;;14.10;99.90;;;;;;7403627;19;20003;-74
2024/01/26 10:46:34;;;;;;;12.13;2.28;;;13.90;99.90;;;;;;7381324;19;20006;-72
2024/01/26 10:49:03;;;;;;;10.05;3.05;;;13.60;99.90;;;;;;7380712;19;20035;-74
2024/01/26 10:51:34;;;;;;;11.52;2.20;;;13.90;99.90;;;;;;7381980;19;20058;-73
2024/01/26 10:54:10;;;;;;;15.13;1.83;;;14.00;99.90;;;;;;7382325;19;20009;-73
2024/01/26 10:56:39;;;;;;;5.38;1.45;;;13.90;99.90;;;;;;7381600;19;20070;-74
2024/01/26 10:59:10;;;;;;;8.73;1.50;;;13.90;99.90;;;;;;7403312;19;20353;-72
2024/01/26 11:01:39;;;;;;;8.88;1.48;;;13.80;99.90;;;;;;7381353;19;20003;-72
2024/01/26 11:04:10;;;;;;;6.97;1.33;;;14.00;99.90;;;;;;7380888;19;19999;-71
2024/01/26 11:06:39;;;;;;;12.93;1.98;;;13.80;99.90;;;;;;7380005;19;20006;-72
2024/01/26 11:09:15;;;;;;;6.07;1.13;;;14.00;99.90;;;;;;7379475;19;20019;-72
2024/01/26 11:11:43;;;;;;;12.05;1.70;;;14.00;99.90;;;;;;7381271;19;19996;-74
2024/01/26 11:14:15;;;;;;;12.32;2.08;;;14.10;99.90;;;;;;7402197;19;20342;-73
2024/01/26 11:16:47;;;;;;;13.30;2.50;;;14.10;99.90;;;;;;7380061;19;20018;-72
2024/01/26 11:19:24;;;;;;;11.70;2.13;;;14.00;99.90;;;;;;7379884;19;20007;-73
2024/01/26 11:21:52;;;;;;;14.23;2.35;;;14.00;99.90;;;;;;7380312;19;20245;-72
2024/01/26 11:24:27;;;;;;;15.57;2.25;;;13.90;99.90;;;;;;7380366;19;20247;-73
2024/01/26 11:26:59;;;;;;;7.63;1.85;;;13.80;99.90;;;;;;7380482;19;20010;-73
2024/01/26 11:29:34;;;;;;;5.50;1.35;;;14.10;99.90;;;;;;7378565;19;20417;-71
2024/01/26 11:32:03;;;;;;;14.15;1.88;;;14.40;99.90;;;;;;7402168;19;20006;-73
2024/01/26 11:34:31;;;;;;;10.80;2.17;;;14.50;99.90;;;;;;7379393;19;20068;-72
2024/01/26 11:37:13;;;;;;;16.70;2.45;;;14.60;99.90;;;;;;7378936;19;20394;-72
2024/01/26 11:39:44;;;;;;;;;;;14.60;99.90;;;;;;7380004;19;20006;-71
2024/01/26 11:42:13;;;;;;;12.15;2.00;;;14.90;99.90;;;;;;7379706;19;20232;-74
2024/01/26 11:44:49;;;;;;;16.73;3.15;;;14.70;99.90;;;;;;7379386;19;20006;-73
2024/01/26 11:47:18;;;;;;;15.07;2.50;;;14.80;99.90;;;;;;7400697;19;20076;-74
2024/01/26 11:49:47;;;;;;;13.45;2.85;;;14.80;99.90;;;;;;7377876;19;20021;-74
2024/01/26 11:52:16;;;;;;;16.05;2.45;;;15.00;99.90;;;;;;7379050;19;20015;-72
2024/01/26 11:54:47;;;;;;;17.52;3.15;;;15.20;99.90;;;;;;7379073;19;20283;-71
2024/01/26 11:57:17;;;;;;;12.43;2.53;;;15.10;99.90;;;;;;7379530;19;20038;-73
2024/01/26 11:59:46;;;;;;;24.00;2.75;;;15.20;99.90;;;;;;7379473;19;20039;-72
2024/01/26 12:02:15;;;;;;;14.70;2.70;;;14.90;99.90;;;;;;7400919;19;20015;-71
2024/01/26 12:04:44;;;;;;;18.75;2.60;;;15.00;99.90;;;;;;7378464;19;20066;-72
2024/01/26 12:07:13;;;;;;;17.27;3.42;;;15.00;99.90;;;;;;7378354;19;20319;-74
2024/01/26 12:09:42;;;;;;;16.08;2.50;;;14.90;99.90;;;;;;7379486;19;20002;-73
2024/01/26 12:12:14;;;;;;;12.77;3.10;;;14.70;99.90;;;;;;7386218;19;20066;-72
2024/01/26 12:14:43;;;;;;;20.27;3.25;;;14.70;99.90;;;;;;7386598;19;20019;-72
2024/01/26 12:17:12;;;;;;;65.10;22.80;;;14.90;99.90;;;;;;7407357;19;20010;-72
2024/01/26 12:19:41;;;;;;;35.72;11.77;;;14.80;99.90;;;;;;7387941;19;20007;-74
2024/01/26 12:22:13;;;;;;;33.55;11.88;;;14.90;99.90;;;;;;7386249;19;20007;-72
2024/01/26 12:24:42;;;;;;;;;;;14.70;99.90;;;;;;7380237;19;20560;-73
2024/01/26 12:27:13;;;;;;;20.83;2.92;;;14.60;99.90;;;;;;7377882;19;20193;-72
2024/01/26 12:29:42;;;;;;;20.80;2.90;;;14.80;99.90;;;;;;7377427;19;20386;-73
2024/01/26 12:32:11;;;;;;;20.60;2.92;;;14.80;99.90;;;;;;7399575;19;20010;-72
2024/01/26 12:34:40;;;;;;;23.52;3.95;;;14.60;99.90;;;;;;7377548;19;20082;-73
2024/01/26 12:37:09;;;;;;;14.38;2.88;;;14.60;99.90;;;;;;7377649;19;20020;-73
2024/01/26 12:39:38;;;;;;;18.88;3.38;;;14.80;99.90;;;;;;7377212;19;20063;-73
2024/01/26 12:42:09;;;;;;;19.65;2.65;;;14.70;99.90;;;;;;7378234;19;20007;-72
2024/01/26 12:44:40;;;;;;;20.83;3.08;;;14.50;99.90;;;;;;7377342;19;20407;-73
2024/01/26 12:47:09;;;;;;;10.05;2.42;;;14.40;99.90;;;;;;7396861;19;20076;-72
2024/01/26 12:49:38;;;;;;;13.32;2.65;;;14.40;99.90;;;;;;7376957;19;20026;-75